sensor_id;sensor_type;location;lat;lon;timestamp;P1;durP1;ratioP1;P2;durP2;ratioP2
41556;SDS011;27720;51.992;5.890;2024-02-04T13:06:17;9.05;;;4.55;;
41556;SDS011;27720;51.992;5.890;2024-02-04T13:08:43;9.20;;;4.72;;
41556;SDS011;27720;51.992;5.890;2024-02-04T13:11:09;8.52;;;4.20;;
41556;SDS011;27720;51.992;5.890;2024-02-04T13:13:34;8.93;;;4.18;;
41556;SDS011;27720;51.992;5.890;2024-02-04T13:16:00;9.27;;;5.22;;
41556;SDS011;27720;51.992;5.890;2024-02-04T13:18:26;10.73;;;3.90;;
41556;SDS011;27720;51.992;5.890;2024-02-04T13:20:52;11.43;;;4.97;;
41556;SDS011;27720;51.992;5.890;2024-02-04T13:23:17;9.80;;;4.85;;
41556;SDS011;27720;51.992;5.890;2024-02-04T13:25:43;12.55;;;4.43;;
41556;SDS011;27720;51.992;5.890;2024-02-04T13:28:10;14.65;;;3.92;;
41556;SDS011;27720;51.992;5.890;2024-02-04T13:30:37;8.32;;;3.35;;
41556;SDS011;27720;51.992;5.890;2024-02-04T13:33:02;9.25;;;2.90;;
41556;SDS011;27720;51.992;5.890;2024-02-04T13:35:28;11.77;;;4.10;;
41556;SDS011;27720;51.992;5.890;2024-02-04T13:37:55;5.10;;;3.38;;
41556;SDS011;27720;51.992;5.890;2024-02-04T13:40:21;5.35;;;3.22;;
41556;SDS011;27720;51.992;5.890;2024-02-04T13:42:49;6.03;;;3.13;;
41556;SDS011;27720;51.992;5.890;2024-02-04T13:45:14;12.00;;;3.78;;
41556;SDS011;27720;51.992;5.890;2024-02-04T13:47:41;11.98;;;4.32;;
41556;SDS011;27720;51.992;5.890;2024-02-04T13:50:08;10.95;;;3.95;;
41556;SDS011;27720;51.992;5.890;2024-02-04T13:52:35;13.32;;;4.07;;
41556;SDS011;27720;51.992;5.890;2024-02-04T13:55:01;7.43;;;3.03;;
41556;SDS011;27720;51.992;5.890;2024-02-04T13:57:30;5.90;;;3.38;;
41556;SDS011;27720;51.992;5.890;2024-02-04T13:59:56;9.48;;;3.42;;
41556;SDS011;27720;51.992;5.890;2024-02-04T14:02:21;10.27;;;3.78;;
41556;SDS011;27720;51.992;5.890;2024-02-04T14:04:49;7.30;;;3.63;;
41556;SDS011;27720;51.992;5.890;2024-02-04T14:07:15;7.00;;;3.15;;
41556;SDS011;27720;51.992;5.890;2024-02-04T14:09:41;8.80;;;3.47;;
41556;SDS011;27720;51.992;5.890;2024-02-04T14:12:06;12.25;;;3.40;;
41556;SDS011;27720;51.992;5.890;2024-02-04T14:14:32;9.93;;;3.35;;
41556;SDS011;27720;51.992;5.890;2024-02-04T14:16:58;9.40;;;3.70;;
41556;SDS011;27720;51.992;5.890;2024-02-04T14:19:24;11.98;;;4.00;;
41556;SDS011;27720;51.992;5.890;2024-02-04T14:21:49;10.57;;;4.07;;
41556;SDS011;27720;51.992;5.890;2024-02-04T14:24:15;12.30;;;4.00;;
41556;SDS011;27720;51.992;5.890;2024-02-04T14:26:41;7.60;;;3.40;;
41556;SDS011;27720;51.992;5.890;2024-02-04T14:29:07;10.93;;;4.53;;
41556;SDS011;27720;51.992;5.890;2024-02-04T14:31:33;5.45;;;3.30;;
41556;SDS011;27720;51.992;5.890;2024-02-04T14:33:59;11.38;;;3.88;;
41556;SDS011;27720;51.992;5.890;2024-02-04T14:36:25;11.32;;;3.97;;
41556;SDS011;27720;51.992;5.890;2024-02-04T14:38:53;11.77;;;4.57;;
41556;SDS011;27720;51.992;5.890;2024-02-04T14:41:19;12.93;;;3.70;;
41556;SDS011;27720;51.992;5.890;2024-02-04T14:43:58;12.45;;;4.85;;
41556;SDS011;27720;51.992;5.890;2024-02-04T14:46:35;12.07;;;3.58;;
41556;SDS011;27720;51.992;5.890;2024-02-04T14:49:02;4.33;;;2.67;;
41556;SDS011;27720;51.992;5.890;2024-02-04T14:51:32;18.17;;;5.10;;
41556;SDS011;27720;51.992;5.890;2024-02-04T14:53:58;11.95;;;3.70;;
41556;SDS011;27720;51.992;5.890;2024-02-04T14:56:24;9.00;;;3.97;;
41556;SDS011;27720;51.992;5.890;2024-02-04T14:58:49;15.23;;;3.55;;
41556;SDS011;27720;51.992;5.890;2024-02-04T15:01:15;15.48;;;4.38;;
41556;SDS011;27720;51.992;5.890;2024-02-04T15:03:41;17.52;;;4.28;;
41556;SDS011;27720;51.992;5.890;2024-02-04T15:06:07;11.75;;;4.28;;
41556;SDS011;27720;51.992;5.890;2024-02-04T15:08:32;14.32;;;4.03;;
41556;SDS011;27720;51.992;5.890;2024-02-04T15:10:58;14.43;;;3.72;;
41556;SDS011;27720;51.992;5.890;2024-02-04T15:13:24;12.88;;;4.82;;
41556;SDS011;27720;51.992;5.890;2024-02-04T15:15:51;11.68;;;3.67;;
41556;SDS011;27720;51.992;5.890;2024-02-04T15:18:17;9.02;;;4.15;;
41556;SDS011;27720;51.992;5.890;2024-02-04T15:20:44;15.35;;;4.38;;
41556;SDS011;27720;51.992;5.890;2024-02-04T15:23:10;10.48;;;3.80;;
41556;SDS011;27720;51.992;5.890;2024-02-04T15:25:36;9.80;;;3.25;;
41556;SDS011;27720;51.992;5.890;2024-02-04T15:28:02;7.38;;;2.95;;
41556;SDS011;27720;51.992;5.890;2024-02-04T15:30:30;8.18;;;3.15;;
41556;SDS011;27720;51.992;5.890;2024-02-04T15:32:56;4.80;;;2.13;;
41556;SDS011;27720;51.992;5.890;2024-02-04T15:35:23;6.72;;;3.25;;
41556;SDS011;27720;51.992;5.890;2024-02-04T15:37:50;8.05;;;2.92;;
41556;SDS011;27720;51.992;5.890;2024-02-04T15:40:17;8.75;;;2.65;;
41556;SDS011;27720;51.992;5.890;2024-02-04T15:42:44;6.30;;;2.47;;
41556;SDS011;27720;51.992;5.890;2024-02-04T15:45:10;7.70;;;2.90;;
41556;SDS011;27720;51.992;5.890;2024-02-04T15:47:44;11.23;;;2.42;;
41556;SDS011;27720;51.992;5.890;2024-02-04T15:50:19;7.72;;;2.03;;
41556;SDS011;27720;51.992;5.890;2024-02-04T15:52:53;6.75;;;2.15;;
41556;SDS011;27720;51.992;5.890;2024-02-04T15:55:22;6.47;;;1.75;;
41556;SDS011;27720;51.992;5.890;2024-02-04T15:57:50;9.73;;;2.50;;
41556;SDS011;27720;51.992;5.890;2024-02-04T16:00:24;6.72;;;1.90;;
41556;SDS011;27720;51.992;5.890;2024-02-04T16:02:53;4.15;;;1.92;;
41556;SDS011;27720;51.992;5.890;2024-02-04T16:05:20;5.22;;;1.65;;
41556;SDS011;27720;51.992;5.890;2024-02-04T16:07:50;12.43;;;1.80;;
41556;SDS011;27720;51.992;5.890;2024-02-04T16:10:20;6.18;;;1.73;;
41556;SDS011;27720;51.992;5.890;2024-02-04T16:15:22;6.80;;;1.73;;
41556;SDS011;27720;51.992;5.890;2024-02-04T16:17:53;11.52;;;2.00;;
41556;SDS011;27720;51.992;5.890;2024-02-04T16:20:20;3.50;;;1.40;;
41556;SDS011;27720;51.992;5.890;2024-02-04T16:31:00;8.68;;;1.92;;
41556;SDS011;27720;51.992;5.890;2024-02-04T16:34:35;6.70;;;1.77;;
41556;SDS011;27720;51.992;5.890;2024-02-04T16:48:30;12.55;;;2.45;;
41556;SDS011;27720;51.992;5.890;2024-02-04T16:50:57;5.45;;;1.90;;
41556;SDS011;27720;51.992;5.890;2024-02-04T16:53:22;8.23;;;2.15;;
41556;SDS011;27720;51.992;5.890;2024-02-04T16:55:49;7.30;;;2.13;;
41556;SDS011;27720;51.992;5.890;2024-02-04T16:58:15;8.85;;;1.80;;
41556;SDS011;27720;51.992;5.890;2024-02-04T17:00:41;13.90;;;2.22;;
41556;SDS011;27720;51.992;5.890;2024-02-04T17:03:13;5.13;;;1.88;;
41556;SDS011;27720;51.992;5.890;2024-02-04T17:26:30;5.70;;;1.73;;
41556;SDS011;27720;51.992;5.890;2024-02-04T17:28:57;5.75;;;1.80;;
41556;SDS011;27720;51.992;5.890;2024-02-04T17:31:23;19.73;;;3.90;;
41556;SDS011;27720;51.992;5.890;2024-02-04T17:33:49;10.65;;;1.75;;
41556;SDS011;27720;51.992;5.890;2024-02-04T17:36:16;11.95;;;2.25;;
41556;SDS011;27720;51.992;5.890;2024-02-04T17:38:41;10.65;;;2.03;;
41556;SDS011;27720;51.992;5.890;2024-02-04T17:41:07;10.80;;;2.45;;
41556;SDS011;27720;51.992;5.890;2024-02-04T17:43:34;11.70;;;2.40;;
41556;SDS011;27720;51.992;5.890;2024-02-04T17:45:59;10.95;;;1.63;;
41556;SDS011;27720;51.992;5.890;2024-02-04T17:48:27;9.75;;;2.75;;
41556;SDS011;27720;51.992;5.890;2024-02-04T17:50:53;13.88;;;2.92;;
41556;SDS011;27720;51.992;5.890;2024-02-04T17:53:19;7.50;;;2.60;;
41556;SDS011;27720;51.992;5.890;2024-02-04T17:55:49;7.97;;;3.78;;
41556;SDS011;27720;51.992;5.890;2024-02-04T17:58:14;9.77;;;2.53;;
41556;SDS011;27720;51.992;5.890;2024-02-04T18:00:40;6.30;;;2.33;;
41556;SDS011;27720;51.992;5.890;2024-02-04T18:03:06;10.63;;;2.58;;
41556;SDS011;27720;51.992;5.890;2024-02-04T18:05:35;6.95;;;2.05;;
41556;SDS011;27720;51.992;5.890;2024-02-04T18:41:15;13.80;;;3.63;;
41556;SDS011;27720;51.992;5.890;2024-02-04T18:43:41;8.98;;;4.32;;
41556;SDS011;27720;51.992;5.890;2024-02-04T18:46:07;8.75;;;3.55;;
41556;SDS011;27720;51.992;5.890;2024-02-04T18:48:34;10.40;;;4.07;;
41556;SDS011;27720;51.992;5.890;2024-02-04T18:51:04;6.43;;;2.92;;
41556;SDS011;27720;51.992;5.890;2024-02-04T18:53:30;9.03;;;4.27;;
41556;SDS011;27720;51.992;5.890;2024-02-04T18:55:56;13.68;;;3.78;;
41556;SDS011;27720;51.992;5.890;2024-02-04T18:58:26;9.23;;;4.18;;
41556;SDS011;27720;51.992;5.890;2024-02-04T19:00:53;8.70;;;3.47;;
41556;SDS011;27720;51.992;5.890;2024-02-04T19:03:20;13.70;;;3.78;;
41556;SDS011;27720;51.992;5.890;2024-02-04T19:05:46;10.80;;;3.92;;
41556;SDS011;27720;51.992;5.890;2024-02-04T19:08:12;16.85;;;3.70;;
41556;SDS011;27720;51.992;5.890;2024-02-04T19:10:44;9.88;;;2.78;;
41556;SDS011;27720;51.992;5.890;2024-02-04T19:13:10;10.73;;;3.10;;
41556;SDS011;27720;51.992;5.890;2024-02-04T19:15:38;9.45;;;3.67;;
41556;SDS011;27720;51.992;5.890;2024-02-04T19:18:04;9.80;;;2.88;;
41556;SDS011;27720;51.992;5.890;2024-02-04T19:20:30;3.90;;;2.08;;
41556;SDS011;27720;51.992;5.890;2024-02-04T19:22:56;11.35;;;2.83;;
41556;SDS011;27720;51.992;5.890;2024-02-04T19:25:22;9.40;;;2.33;;
41556;SDS011;27720;51.992;5.890;2024-02-04T19:27:52;9.07;;;2.75;;
41556;SDS011;27720;51.992;5.890;2024-02-04T19:30:19;9.52;;;2.80;;
41556;SDS011;27720;51.992;5.890;2024-02-04T19:32:47;7.95;;;2.58;;
41556;SDS011;27720;51.992;5.890;2024-02-04T19:35:18;9.02;;;2.72;;
41556;SDS011;27720;51.992;5.890;2024-02-04T19:37:46;9.05;;;2.45;;
41556;SDS011;27720;51.992;5.890;2024-02-04T19:40:12;8.38;;;2.83;;
41556;SDS011;27720;51.992;5.890;2024-02-04T19:42:39;8.65;;;2.50;;
41556;SDS011;27720;51.992;5.890;2024-02-04T19:45:06;5.15;;;2.10;;
41556;SDS011;27720;51.992;5.890;2024-02-04T19:47:34;6.15;;;2.08;;
41556;SDS011;27720;51.992;5.890;2024-02-04T19:50:00;11.07;;;1.73;;
41556;SDS011;27720;51.992;5.890;2024-02-04T19:52:29;13.00;;;2.40;;
41556;SDS011;27720;51.992;5.890;2024-02-04T19:54:55;8.60;;;2.55;;
41556;SDS011;27720;51.992;5.890;2024-02-04T19:57:21;4.85;;;1.85;;
41556;SDS011;27720;51.992;5.890;2024-02-04T19:59:47;4.40;;;2.15;;
41556;SDS011;27720;51.992;5.890;2024-02-04T20:02:13;13.05;;;2.83;;
41556;SDS011;27720;51.992;5.890;2024-02-04T20:04:39;9.68;;;2.55;;
41556;SDS011;27720;51.992;5.890;2024-02-04T20:07:05;9.30;;;2.08;;
41556;SDS011;27720;51.992;5.890;2024-02-04T20:09:32;7.00;;;3.55;;
41556;SDS011;27720;51.992;5.890;2024-02-04T20:12:06;9.18;;;2.30;;
41556;SDS011;27720;51.992;5.890;2024-02-04T20:14:33;6.75;;;1.60;;
41556;SDS011;27720;51.992;5.890;2024-02-04T20:17:00;10.38;;;2.50;;
41556;SDS011;27720;51.992;5.890;2024-02-04T20:19:29;7.93;;;2.53;;
41556;SDS011;27720;51.992;5.890;2024-02-04T20:21:55;9.90;;;2.45;;
41556;SDS011;27720;51.992;5.890;2024-02-04T20:24:20;14.85;;;3.05;;
41556;SDS011;27720;51.992;5.890;2024-02-04T20:26:53;8.15;;;2.42;;
41556;SDS011;27720;51.992;5.890;2024-02-04T20:29:25;7.45;;;2.70;;
41556;SDS011;27720;51.992;5.890;2024-02-04T20:31:54;9.15;;;2.20;;
41556;SDS011;27720;51.992;5.890;2024-02-04T20:34:22;7.30;;;2.33;;
41556;SDS011;27720;51.992;5.890;2024-02-04T20:36:48;5.97;;;1.95;;
41556;SDS011;27720;51.992;5.890;2024-02-04T20:39:16;9.60;;;2.15;;
41556;SDS011;27720;51.992;5.890;2024-02-04T20:41:47;7.38;;;2.13;;
41556;SDS011;27720;51.992;5.890;2024-02-04T20:44:13;6.82;;;1.92;;
41556;SDS011;27720;51.992;5.890;2024-02-04T20:46:42;8.85;;;2.33;;
41556;SDS011;27720;51.992;5.890;2024-02-04T20:49:22;8.63;;;1.70;;
41556;SDS011;27720;51.992;5.890;2024-02-04T20:51:48;5.97;;;1.52;;
41556;SDS011;27720;51.992;5.890;2024-02-04T20:54:15;5.95;;;1.88;;
41556;SDS011;27720;51.992;5.890;2024-02-04T20:56:44;5.40;;;1.45;;
41556;SDS011;27720;51.992;5.890;2024-02-04T20:59:10;7.93;;;1.70;;
41556;SDS011;27720;51.992;5.890;2024-02-04T21:01:36;9.25;;;1.67;;
41556;SDS011;27720;51.992;5.890;2024-02-04T21:04:02;5.25;;;1.63;;
41556;SDS011;27720;51.992;5.890;2024-02-04T21:06:28;12.38;;;2.53;;
41556;SDS011;27720;51.992;5.890;2024-02-04T21:09:01;6.97;;;2.20;;
41556;SDS011;27720;51.992;5.890;2024-02-04T21:11:32;8.95;;;1.95;;
41556;SDS011;27720;51.992;5.890;2024-02-04T21:13:58;7.65;;;2.10;;
41556;SDS011;27720;51.992;5.890;2024-02-04T21:16:27;7.32;;;1.55;;
41556;SDS011;27720;51.992;5.890;2024-02-04T21:18:53;9.57;;;2.03;;
41556;SDS011;27720;51.992;5.890;2024-02-04T21:21:19;10.65;;;1.90;;
41556;SDS011;27720;51.992;5.890;2024-02-04T21:23:51;10.85;;;2.35;;
41556;SDS011;27720;51.992;5.890;2024-02-04T21:26:17;10.32;;;1.92;;
41556;SDS011;27720;51.992;5.890;2024-02-04T21:28:46;7.00;;;1.67;;
41556;SDS011;27720;51.992;5.890;2024-02-04T21:31:21;8.40;;;1.80;;
41556;SDS011;27720;51.992;5.890;2024-02-04T21:33:56;8.05;;;2.35;;
41556;SDS011;27720;51.992;5.890;2024-02-04T21:36:28;7.25;;;1.85;;
41556;SDS011;27720;51.992;5.890;2024-02-04T21:39:09;12.15;;;1.80;;
41556;SDS011;27720;51.992;5.890;2024-02-04T21:41:35;6.90;;;1.70;;
41556;SDS011;27720;51.992;5.890;2024-02-04T21:44:01;10.65;;;1.98;;
41556;SDS011;27720;51.992;5.890;2024-02-04T21:46:26;10.82;;;1.60;;
41556;SDS011;27720;51.992;5.890;2024-02-04T21:48:52;10.50;;;1.90;;
41556;SDS011;27720;51.992;5.890;2024-02-04T21:51:18;5.90;;;1.60;;
41556;SDS011;27720;51.992;5.890;2024-02-04T21:53:43;4.00;;;1.23;;
41556;SDS011;27720;51.992;5.890;2024-02-04T21:56:09;8.52;;;2.00;;
41556;SDS011;27720;51.992;5.890;2024-02-04T21:58:35;6.65;;;3.38;;
41556;SDS011;27720;51.992;5.890;2024-02-04T22:01:01;7.03;;;1.63;;
41556;SDS011;27720;51.992;5.890;2024-02-04T22:03:26;9.70;;;1.70;;
41556;SDS011;27720;51.992;5.890;2024-02-04T22:05:52;10.02;;;2.58;;
41556;SDS011;27720;51.992;5.890;2024-02-04T22:08:18;5.22;;;1.95;;
41556;SDS011;27720;51.992;5.890;2024-02-04T22:10:44;8.05;;;2.22;;
41556;SDS011;27720;51.992;5.890;2024-02-04T22:13:10;6.43;;;1.98;;
41556;SDS011;27720;51.992;5.890;2024-02-04T22:15:35;8.75;;;1.83;;
41556;SDS011;27720;51.992;5.890;2024-02-04T22:18:03;11.10;;;1.88;;
41556;SDS011;27720;51.992;5.890;2024-02-04T22:20:29;8.98;;;1.88;;
41556;SDS011;27720;51.992;5.890;2024-02-04T22:22:55;9.77;;;2.88;;
41556;SDS011;27720;51.992;5.890;2024-02-04T22:25:21;14.25;;;2.83;;
41556;SDS011;27720;51.992;5.890;2024-02-04T22:27:55;6.53;;;1.77;;
41556;SDS011;27720;51.992;5.890;2024-02-04T22:30:23;10.20;;;2.03;;
41556;SDS011;27720;51.992;5.890;2024-02-04T22:32:49;17.70;;;2.60;;
41556;SDS011;27720;51.992;5.890;2024-02-04T22:35:15;10.95;;;2.40;;
41556;SDS011;27720;51.992;5.890;2024-02-04T22:37:41;5.80;;;1.63;;
41556;SDS011;27720;51.992;5.890;2024-02-04T22:40:07;16.23;;;3.28;;
41556;SDS011;27720;51.992;5.890;2024-02-04T22:42:37;8.30;;;2.03;;
41556;SDS011;27720;51.992;5.890;2024-02-04T22:45:04;12.30;;;2.30;;
41556;SDS011;27720;51.992;5.890;2024-02-04T22:47:31;9.18;;;2.03;;
41556;SDS011;27720;51.992;5.890;2024-02-04T22:49:58;11.73;;;2.00;;
41556;SDS011;27720;51.992;5.890;2024-02-04T22:52:24;13.88;;;2.35;;
41556;SDS011;27720;51.992;5.890;2024-02-04T22:54:49;6.03;;;2.08;;
41556;SDS011;27720;51.992;5.890;2024-02-04T22:57:18;14.63;;;2.22;;
41556;SDS011;27720;51.992;5.890;2024-02-04T22:59:44;10.10;;;2.33;;
41556;SDS011;27720;51.992;5.890;2024-02-04T23:02:09;8.82;;;2.28;;
41556;SDS011;27720;51.992;5.890;2024-02-04T23:04:35;19.75;;;3.00;;
41556;SDS011;27720;51.992;5.890;2024-02-04T23:07:04;10.57;;;2.15;;
41556;SDS011;27720;51.992;5.890;2024-02-04T23:09:34;9.07;;;2.35;;
41556;SDS011;27720;51.992;5.890;2024-02-04T23:11:59;13.13;;;2.22;;
41556;SDS011;27720;51.992;5.890;2024-02-04T23:14:25;8.05;;;2.08;;
41556;SDS011;27720;51.992;5.890;2024-02-04T23:16:51;10.68;;;2.33;;
41556;SDS011;27720;51.992;5.890;2024-02-04T23:19:17;19.30;;;2.40;;
41556;SDS011;27720;51.992;5.890;2024-02-04T23:21:46;10.35;;;3.65;;
41556;SDS011;27720;51.992;5.890;2024-02-04T23:24:12;7.80;;;1.67;;
41556;SDS011;27720;51.992;5.890;2024-02-04T23:26:37;13.98;;;2.20;;
41556;SDS011;27720;51.992;5.890;2024-02-04T23:29:03;10.02;;;1.70;;
41556;SDS011;27720;51.992;5.890;2024-02-04T23:31:30;12.32;;;2.40;;
41556;SDS011;27720;51.992;5.890;2024-02-04T23:33:56;14.23;;;2.45;;
41556;SDS011;27720;51.992;5.890;2024-02-04T23:36:22;10.75;;;2.53;;
41556;SDS011;27720;51.992;5.890;2024-02-04T23:38:48;15.10;;;2.80;;
41556;SDS011;27720;51.992;5.890;2024-02-04T23:41:14;9.73;;;2.13;;
41556;SDS011;27720;51.992;5.890;2024-02-04T23:43:40;11.98;;;2.33;;
41556;SDS011;27720;51.992;5.890;2024-02-04T23:46:06;13.18;;;2.90;;
41556;SDS011;27720;51.992;5.890;2024-02-04T23:48:32;8.13;;;2.17;;
41556;SDS011;27720;51.992;5.890;2024-02-04T23:50:58;17.20;;;2.60;;
41556;SDS011;27720;51.992;5.890;2024-02-04T23:53:24;10.77;;;2.75;;
41556;SDS011;27720;51.992;5.890;2024-02-04T23:55:50;9.85;;;2.88;;
41556;SDS011;27720;51.992;5.890;2024-02-04T23:58:16;8.98;;;2.55;;
